createdAt,value
2022-09-04T00:02:38.005Z,3.77
2022-09-04T00:05:20.343Z,4.57
2022-09-04T00:08:00.640Z,3.20
2022-09-04T00:10:32.411Z,3.63
2022-09-04T00:13:10.647Z,3.63
2022-09-04T00:15:42.398Z,3.60
2022-09-04T00:18:14.311Z,3.23
2022-09-04T00:20:48.446Z,3.40
2022-09-04T00:23:21.620Z,3.07
2022-09-04T00:25:57.701Z,3.50
2022-09-04T00:28:34.879Z,3.20
2022-09-04T00:31:13.614Z,3.60
2022-09-04T00:33:47.585Z,3.40
2022-09-04T00:36:18.394Z,3.50
2022-09-04T00:38:51.138Z,3.20
2022-09-04T00:41:28.296Z,3.50
2022-09-04T00:44:14.750Z,3.03
2022-09-04T00:47:00.788Z,3.20
2022-09-04T00:49:42.121Z,3.10
2022-09-04T00:52:21.409Z,3.20
2022-09-04T00:55:23.037Z,3.40
2022-09-04T00:58:08.282Z,3.00
2022-09-04T01:00:37.595Z,3.20
2022-09-04T01:03:33.862Z,3.33
2022-09-04T01:06:22.431Z,2.90
2022-09-04T01:09:13.619Z,2.80
2022-09-04T01:11:46.830Z,2.80
2022-09-04T01:14:20.202Z,3.00
2022-09-04T01:16:50.715Z,2.97
2022-09-04T01:19:31.982Z,2.67
2022-09-04T01:22:08.517Z,3.40
2022-09-04T01:25:00.913Z,3.13
2022-09-04T01:27:34.874Z,2.90
2022-09-04T01:30:08.062Z,2.80
2022-09-04T01:32:45.422Z,2.83
2022-09-04T01:35:23.005Z,2.90
2022-09-04T01:38:00.350Z,2.87
2022-09-04T01:40:37.712Z,3.10
2022-09-04T01:43:11.324Z,3.03
2022-09-04T01:46:14.342Z,3.00
2022-09-04T01:48:48.803Z,3.00
2022-09-04T01:51:25.688Z,2.67
2022-09-04T01:54:05.003Z,2.50
2022-09-04T01:56:37.383Z,2.30
2022-09-04T01:59:15.111Z,2.40
2022-09-04T02:01:48.794Z,2.40
2022-09-04T02:04:21.686Z,2.73
2022-09-04T02:06:59.559Z,2.60
2022-09-04T02:09:35.566Z,2.40
2022-09-04T02:12:11.863Z,2.20
2022-09-04T02:14:53.243Z,2.13
2022-09-04T02:17:32.665Z,2.10
2022-09-04T02:20:11.119Z,1.90
2022-09-04T02:22:45.172Z,1.80
2022-09-04T02:25:22.648Z,1.97
2022-09-04T02:27:59.156Z,1.60
2022-09-04T02:30:33.787Z,1.50
2022-09-04T02:33:09.568Z,1.60
2022-09-04T02:35:41.486Z,1.80
2022-09-04T02:38:19.793Z,1.70
2022-09-04T02:40:53.312Z,1.40
2022-09-04T02:43:35.769Z,1.60
2022-09-04T02:46:10.795Z,1.90
2022-09-04T02:48:52.205Z,1.77
2022-09-04T02:51:28.346Z,1.97
2022-09-04T02:54:04.169Z,1.90
2022-09-04T02:56:41.920Z,1.80
2022-09-04T02:59:31.734Z,2.10
2022-09-04T03:02:02.974Z,2.17
2022-09-04T03:04:36.446Z,2.00
2022-09-04T03:07:10.861Z,2.20
2022-09-04T03:09:43.706Z,2.20
2022-09-04T03:12:29.219Z,1.87
2022-09-04T03:15:03.006Z,2.30
2022-09-04T03:17:38.059Z,1.90
2022-09-04T03:20:11.569Z,2.00
2022-09-04T03:22:44.852Z,1.90
2022-09-04T03:25:43.562Z,1.90
2022-09-04T03:28:19.252Z,1.70
2022-09-04T03:30:48.058Z,1.80
2022-09-04T03:33:23.284Z,1.80
2022-09-04T03:35:57.666Z,2.03
2022-09-04T03:38:30.931Z,2.17
2022-09-04T03:41:08.597Z,1.90
2022-09-04T03:43:52.055Z,1.90
2022-09-04T03:46:28.041Z,1.97
2022-09-04T03:49:08.714Z,2.00
2022-09-04T03:51:44.903Z,2.00
2022-09-04T03:54:24.958Z,2.20
2022-09-04T03:57:28.750Z,2.20
2022-09-04T04:00:06.625Z,2.00
2022-09-04T04:02:49.145Z,1.80
2022-09-04T04:05:27.421Z,1.97
2022-09-04T04:08:08.764Z,1.80
2022-09-04T04:10:48.542Z,2.37
2022-09-04T04:13:35.278Z,1.80
2022-09-04T04:16:24.889Z,1.73
2022-09-04T04:19:10.807Z,2.00
2022-09-04T04:21:54.852Z,2.00
2022-09-04T04:24:49.330Z,2.10
2022-09-04T04:27:32.406Z,2.10
2022-09-04T04:30:06.921Z,1.60
2022-09-04T04:32:51.578Z,1.80
2022-09-04T04:35:30.536Z,1.90
2022-09-04T04:38:27.609Z,1.80
2022-09-04T04:41:21.851Z,1.80
2022-09-04T04:43:59.169Z,2.00
2022-09-04T04:46:37.796Z,2.10
2022-09-04T04:49:44.758Z,2.10
2022-09-04T04:52:39.423Z,1.97
2022-09-04T04:55:23.529Z,2.17
2022-09-04T04:58:22.228Z,2.10
2022-09-04T05:00:55.327Z,2.10
2022-09-04T05:03:28.463Z,2.20
2022-09-04T05:06:00.866Z,1.90
2022-09-04T05:08:37.760Z,1.80
2022-09-04T05:11:14.991Z,1.80
2022-09-04T05:13:52.781Z,6.20
2022-09-04T05:16:26.835Z,2.10
2022-09-04T05:18:59.689Z,1.90
2022-09-04T05:21:33.852Z,1.70
2022-09-04T05:24:06.679Z,1.83
2022-09-04T05:26:42.724Z,2.10
2022-09-04T05:29:17.403Z,1.70
2022-09-04T05:31:52.436Z,1.70
2022-09-04T05:34:30.619Z,1.60
2022-09-04T05:37:09.552Z,2.37
2022-09-04T05:39:47.263Z,8.87
2022-09-04T05:42:48.798Z,2.10
2022-09-04T05:45:24.959Z,1.60
2022-09-04T05:48:05.598Z,1.50
2022-09-04T05:51:06.218Z,1.40
2022-09-04T05:53:44.597Z,1.10
2022-09-04T05:56:37.037Z,1.30
2022-09-04T05:59:31.267Z,1.20
2022-09-04T06:02:20.358Z,1.13
2022-09-04T06:05:10.837Z,0.80
2022-09-04T06:07:44.178Z,1.42
2022-09-04T06:10:17.775Z,1.40
2022-09-04T06:13:13.558Z,1.00
2022-09-04T06:15:51.447Z,1.10
2022-09-04T06:18:47.036Z,1.30
2022-09-04T06:21:26.456Z,1.20
2022-09-04T06:24:18.410Z,1.10
2022-09-04T06:26:54.807Z,1.02
2022-09-04T06:29:49.826Z,1.20
2022-09-04T06:32:33.579Z,1.17
2022-09-04T06:35:15.488Z,1.20
2022-09-04T06:37:49.035Z,1.17
2022-09-04T06:40:26.782Z,1.10
2022-09-04T06:43:04.886Z,1.33
2022-09-04T06:45:44.917Z,1.38
2022-09-04T06:48:23.687Z,1.42
2022-09-04T06:50:59.160Z,1.40
2022-09-04T06:53:42.578Z,1.65
2022-09-04T06:56:32.344Z,1.10
2022-09-04T06:59:23.242Z,1.10
2022-09-04T07:02:01.315Z,1.95
2022-09-04T07:04:49.457Z,1.17
2022-09-04T07:07:23.953Z,3.08
2022-09-04T07:10:01.157Z,3.55
2022-09-04T07:13:01.842Z,1.48
2022-09-04T07:15:50.286Z,1.50
2022-09-04T07:18:36.249Z,1.30
2022-09-04T07:21:15.447Z,1.20
2022-09-04T07:23:50.223Z,1.02
2022-09-04T07:26:26.039Z,1.35
2022-09-04T07:29:26.195Z,1.20
2022-09-04T07:32:02.017Z,1.60
2022-09-04T07:34:35.914Z,1.15
2022-09-04T07:37:13.583Z,1.45
2022-09-04T07:39:49.614Z,1.48
2022-09-04T07:42:25.185Z,1.70
2022-09-04T07:45:00.887Z,1.60
2022-09-04T07:47:35.399Z,1.50
2022-09-04T07:50:10.528Z,1.40
2022-09-04T07:53:04.260Z,6.90
2022-09-04T07:55:42.351Z,3.72
2022-09-04T07:58:53.449Z,1.70
2022-09-04T08:01:47.002Z,2.65
2022-09-04T08:04:26.223Z,2.88
2022-09-04T08:06:59.148Z,2.08
2022-09-04T08:10:06.342Z,2.00
2022-09-04T08:12:58.076Z,1.98
2022-09-04T08:15:40.965Z,2.10
2022-09-04T08:18:22.881Z,2.25
2022-09-04T08:20:56.822Z,2.20
2022-09-04T08:23:50.964Z,2.20
2022-09-04T08:26:25.458Z,2.25
2022-09-04T08:29:05.594Z,1.75
2022-09-04T08:31:39.980Z,2.33
2022-09-04T08:34:29.658Z,2.22
2022-09-04T08:37:06.718Z,2.25
2022-09-04T08:39:42.241Z,2.08
2022-09-04T08:42:37.456Z,2.05
2022-09-04T08:45:42.220Z,2.30
2022-09-04T08:48:35.702Z,2.20
2022-09-04T08:51:42.846Z,1.90
2022-09-04T08:54:31.547Z,1.80
2022-09-04T08:57:27.626Z,2.00
2022-09-04T09:00:11.683Z,1.88
2022-09-04T09:03:13.513Z,2.83
2022-09-04T09:06:15.793Z,1.83
2022-09-04T09:09:39.299Z,1.85
2022-09-04T09:12:59.317Z,1.92
2022-09-04T09:15:50.644Z,2.00
2022-09-04T09:18:40.587Z,1.73
2022-09-04T09:21:11.519Z,1.85
2022-09-04T09:23:46.250Z,2.00
2022-09-04T09:26:28.183Z,2.42
2022-09-04T09:29:29.521Z,1.98
2022-09-04T09:32:34.364Z,2.00
2022-09-04T09:35:39.476Z,2.10
2022-09-04T09:38:48.686Z,1.77
2022-09-04T09:41:51.715Z,2.00
2022-09-04T09:44:42.863Z,2.47
2022-09-04T09:47:39.099Z,1.80
2022-09-04T09:50:43.889Z,2.03
2022-09-04T09:53:47.092Z,1.88
2022-09-04T09:56:53.563Z,1.70
2022-09-04T10:00:09.824Z,1.77
2022-09-04T10:03:14.066Z,3.80
2022-09-04T10:05:57.149Z,1.90
2022-09-04T10:08:43.378Z,1.77
2022-09-04T10:11:40.794Z,2.00
2022-09-04T10:14:47.901Z,1.98
2022-09-04T10:18:05.982Z,1.80
2022-09-04T10:20:56.969Z,1.80
2022-09-04T10:23:54.251Z,1.95
2022-09-04T10:27:12.319Z,1.73
2022-09-04T10:30:00.978Z,1.80
2022-09-04T10:33:11.825Z,1.60
2022-09-04T10:35:58.658Z,2.00
2022-09-04T10:38:58.894Z,2.15
2022-09-04T10:41:59.011Z,2.00
2022-09-04T10:45:01.145Z,2.10
2022-09-04T10:47:45.036Z,2.00
2022-09-04T10:50:24.021Z,3.85
2022-09-04T10:53:09.606Z,4.68
2022-09-04T10:55:49.323Z,6.28
2022-09-04T10:58:31.078Z,4.90
2022-09-04T11:01:34.152Z,2.30
2022-09-04T11:04:27.607Z,5.05
2022-09-04T11:07:11.616Z,4.85
2022-09-04T11:10:05.188Z,6.22
2022-09-04T11:12:44.247Z,32.33
2022-09-04T11:15:31.196Z,6.70
2022-09-04T11:18:22.292Z,3.47
2022-09-04T11:21:16.032Z,2.10
2022-09-04T11:24:21.250Z,2.90
2022-09-04T11:27:33.794Z,2.10
2022-09-04T11:30:06.678Z,2.72
2022-09-04T11:33:12.411Z,2.28
2022-09-04T11:36:09.707Z,2.22
2022-09-04T11:39:06.778Z,2.45
2022-09-04T11:42:00.521Z,2.08
2022-09-04T11:44:41.022Z,2.20
2022-09-04T11:47:57.913Z,2.10
2022-09-04T11:50:40.348Z,1.95
2022-09-04T11:53:49.978Z,2.00
2022-09-04T11:56:40.067Z,2.13
2022-09-04T11:59:23.447Z,2.20
2022-09-04T12:02:17.564Z,1.98
2022-09-04T12:05:01.156Z,1.90
2022-09-04T12:07:45.547Z,2.22
2022-09-04T12:10:30.142Z,3.60
2022-09-04T12:13:15.628Z,2.10
2022-09-04T12:16:16.156Z,2.42
2022-09-04T12:19:20.167Z,2.40
2022-09-04T12:22:31.252Z,3.25
2022-09-04T12:25:19.325Z,4.07
2022-09-04T12:28:37.990Z,4.07
2022-09-04T12:31:19.291Z,3.30
2022-09-04T12:34:05.162Z,3.50
2022-09-04T12:37:07.102Z,3.00
2022-09-04T12:39:50.948Z,2.80
2022-09-04T12:42:23.750Z,2.50
2022-09-04T12:45:01.835Z,2.77
2022-09-04T12:47:40.952Z,2.83
2022-09-04T12:50:21.016Z,2.70
2022-09-04T12:53:06.046Z,2.27
2022-09-04T12:55:46.288Z,2.50
2022-09-04T12:58:24.271Z,2.53
2022-09-04T13:01:09.510Z,2.83
2022-09-04T13:03:46.980Z,2.83
2022-09-04T13:06:22.138Z,3.23
2022-09-04T13:08:58.216Z,3.30
2022-09-04T13:11:40.507Z,2.93
2022-09-04T13:14:24.055Z,2.90
2022-09-04T13:16:56.338Z,3.10
2022-09-04T13:19:28.638Z,2.97
2022-09-04T13:22:10.379Z,2.83
2022-09-04T13:24:51.181Z,2.90
2022-09-04T13:27:30.084Z,3.20
2022-09-04T13:30:06.678Z,3.23
2022-09-04T13:33:01.104Z,3.20
2022-09-04T13:35:50.122Z,3.40
2022-09-04T13:38:42.991Z,3.10
2022-09-04T13:41:36.564Z,3.10
2022-09-04T13:44:21.687Z,2.80
2022-09-04T13:46:57.802Z,2.90
2022-09-04T13:49:29.418Z,2.87
2022-09-04T13:52:06.705Z,2.70
2022-09-04T13:54:37.680Z,2.90
2022-09-04T13:57:11.697Z,4.90
2022-09-04T13:59:42.875Z,5.93
2022-09-04T14:02:14.381Z,3.60
2022-09-04T14:04:46.088Z,2.80
2022-09-04T14:07:19.136Z,2.40
2022-09-04T14:09:50.823Z,2.20
2022-09-04T14:12:36.599Z,2.40
2022-09-04T14:15:38.111Z,2.67
2022-09-04T14:18:16.652Z,2.47
2022-09-04T14:20:52.437Z,2.50
2022-09-04T14:23:29.271Z,2.47
2022-09-04T14:26:07.300Z,4.43
2022-09-04T14:28:38.750Z,8.73
2022-09-04T14:31:16.975Z,6.80
2022-09-04T14:33:51.241Z,2.50
2022-09-04T14:36:26.595Z,2.50
2022-09-04T14:39:06.941Z,2.50
2022-09-04T14:41:51.327Z,2.30
2022-09-04T14:44:32.459Z,2.20
2022-09-04T14:47:09.700Z,2.50
2022-09-04T14:49:47.504Z,3.20
2022-09-04T14:52:19.715Z,4.50
2022-09-04T14:54:51.970Z,3.90
2022-09-04T14:57:24.820Z,3.60
2022-09-04T15:00:03.631Z,13.53
2022-09-04T15:02:38.043Z,24.77
2022-09-04T15:05:15.974Z,16.40
2022-09-04T15:07:56.609Z,7.20
2022-09-04T15:10:47.723Z,3.57
2022-09-04T15:13:35.315Z,2.70
2022-09-04T15:16:14.582Z,2.60
2022-09-04T15:18:53.555Z,2.80
2022-09-04T15:21:26.360Z,2.73
2022-09-04T15:24:02.209Z,2.90
2022-09-04T15:26:35.357Z,3.10
2022-09-04T15:29:07.913Z,2.60
2022-09-04T15:31:38.235Z,2.77
2022-09-04T15:34:11.700Z,2.90
2022-09-04T15:36:40.627Z,2.60
2022-09-04T15:39:15.785Z,2.50
2022-09-04T15:41:49.976Z,2.80
2022-09-04T15:44:26.648Z,2.53
2022-09-04T15:47:03.851Z,2.70
2022-09-04T15:49:45.140Z,2.50
2022-09-04T15:52:31.935Z,3.20
2022-09-04T15:55:11.503Z,2.43
2022-09-04T15:57:56.077Z,2.60
2022-09-04T16:00:26.468Z,2.50
2022-09-04T16:03:00.904Z,2.53
2022-09-04T16:05:41.304Z,2.70
2022-09-04T16:08:21.115Z,2.50
2022-09-04T16:10:54.703Z,2.53
2022-09-04T16:13:36.629Z,3.50
2022-09-04T16:16:11.555Z,3.50
2022-09-04T16:18:50.710Z,2.97
2022-09-04T16:21:32.123Z,3.70
2022-09-04T16:24:09.154Z,5.17
2022-09-04T16:26:39.116Z,4.30
2022-09-04T16:29:09.477Z,3.50
2022-09-04T16:31:39.987Z,3.10
2022-09-04T16:34:17.792Z,2.83
2022-09-04T16:36:50.938Z,6.67
2022-09-04T16:39:26.664Z,7.50
2022-09-04T16:41:59.057Z,7.43
2022-09-04T16:44:31.231Z,5.70
2022-09-04T16:47:04.647Z,3.80
2022-09-04T16:49:40.642Z,3.20
2022-09-04T16:52:31.868Z,2.80
2022-09-04T16:55:07.751Z,3.00
2022-09-04T16:57:41.778Z,3.00
2022-09-04T17:00:13.886Z,5.00
2022-09-04T17:02:50.796Z,4.87
2022-09-04T17:05:28.417Z,6.20
2022-09-04T17:08:03.139Z,6.13
2022-09-04T17:10:38.500Z,8.00
2022-09-04T17:13:13.075Z,8.60
2022-09-04T17:15:53.612Z,11.50
2022-09-04T17:18:24.014Z,6.50
2022-09-04T17:24:04.544Z,3.20
2022-09-04T17:29:02.124Z,3.83
2022-09-04T17:29:12.202Z,10.77
2022-09-04T17:29:44.534Z,6.60
2022-09-04T17:32:58.356Z,5.70
2022-09-04T17:40:35.449Z,5.10
2022-09-04T17:40:56.843Z,3.90
2022-09-04T17:41:35.713Z,3.23
2022-09-04T17:44:09.248Z,4.30
2022-09-04T17:46:39.813Z,13.43
2022-09-04T17:49:17.007Z,16.50
2022-09-04T17:51:51.727Z,30.70
2022-09-04T17:54:28.738Z,22.33
2022-09-04T17:57:00.761Z,30.90
2022-09-04T17:59:33.571Z,12.77
2022-09-04T18:02:05.410Z,15.70
2022-09-04T18:04:40.289Z,12.33
2022-09-04T18:07:33.520Z,9.03
2022-09-04T18:10:18.285Z,9.23
2022-09-04T18:12:52.505Z,16.47
2022-09-04T18:15:34.431Z,13.33
2022-09-04T18:18:11.891Z,8.73
2022-09-04T18:20:44.001Z,7.00
2022-09-04T18:23:51.216Z,4.87
2022-09-04T18:26:39.896Z,8.23
2022-09-04T18:33:28.387Z,9.97
2022-09-04T18:37:17.610Z,6.20
2022-09-04T18:37:25.658Z,8.27
2022-09-04T18:38:37.671Z,9.47
2022-09-04T18:47:18.757Z,9.30
2022-09-04T18:50:24.392Z,5.67
2022-09-04T18:50:34.161Z,6.87
2022-09-04T18:50:39.645Z,6.13
2022-09-04T18:53:05.098Z,6.47
2022-09-04T18:55:38.712Z,5.93
2022-09-04T18:59:00.809Z,4.30
2022-09-04T19:01:38.095Z,5.30
2022-09-04T19:04:43.409Z,5.60
2022-09-04T19:07:23.150Z,9.50
2022-09-04T19:10:16.819Z,18.47
2022-09-04T19:12:55.870Z,5.67
2022-09-04T19:15:36.962Z,4.00
2022-09-04T19:18:14.117Z,11.13
2022-09-04T19:20:47.512Z,10.43
2022-09-04T19:23:26.526Z,6.90
2022-09-04T19:25:56.206Z,5.97
2022-09-04T19:28:27.963Z,6.10
2022-09-04T19:31:00.058Z,3.97
2022-09-04T19:33:36.433Z,6.50
2022-09-04T19:36:09.106Z,6.77
2022-09-04T19:43:07.619Z,12.67
2022-09-04T19:45:57.762Z,7.70
2022-09-04T19:46:14.821Z,4.53
2022-09-04T19:47:29.617Z,3.73
2022-09-04T19:53:14.207Z,4.67
2022-09-04T19:53:35.411Z,6.50
2022-09-04T19:55:49.530Z,10.93
2022-09-04T19:58:21.102Z,6.30
2022-09-04T20:00:56.218Z,6.77
2022-09-04T20:03:29.962Z,5.67
2022-09-04T20:06:20.767Z,6.93
2022-09-04T20:08:52.860Z,6.17
2022-09-04T20:11:27.270Z,5.33
2022-09-04T20:14:15.060Z,8.77
2022-09-04T20:16:55.308Z,8.80
2022-09-04T20:19:28.849Z,4.10
2022-09-04T20:22:03.733Z,3.90
2022-09-04T20:24:37.593Z,9.73
2022-09-04T20:27:15.606Z,9.83
2022-09-04T20:29:54.484Z,8.00
2022-09-04T20:32:27.614Z,7.00
2022-09-04T20:34:59.905Z,5.10
2022-09-04T20:37:48.993Z,5.23
2022-09-04T20:40:32.979Z,4.33
2022-09-04T20:43:14.593Z,3.03
2022-09-04T20:50:27.185Z,3.63
2022-09-04T20:52:54.578Z,2.83
2022-09-04T20:53:06.083Z,3.03
2022-09-04T20:54:55.635Z,4.57
2022-09-04T21:02:07.907Z,3.50
2022-09-04T21:03:07.691Z,3.80
2022-09-04T21:03:29.456Z,3.60
2022-09-04T21:06:22.706Z,4.00
2022-09-04T21:08:58.612Z,3.33
2022-09-04T21:11:39.544Z,3.40
2022-09-04T21:14:15.674Z,3.10
2022-09-04T21:17:33.504Z,3.20
2022-09-04T21:20:36.471Z,3.30
2022-09-04T21:23:29.120Z,3.23
2022-09-04T21:26:03.970Z,3.10
2022-09-04T21:28:58.315Z,3.20
2022-09-04T21:32:05.913Z,3.30
2022-09-04T21:35:01.718Z,3.50
2022-09-04T21:37:42.842Z,3.10
2022-09-04T21:40:51.793Z,3.00
2022-09-04T21:43:36.207Z,3.20
2022-09-04T21:46:41.022Z,3.13
2022-09-04T21:49:30.962Z,2.90
2022-09-04T21:52:09.937Z,2.90
2022-09-04T21:57:13.540Z,2.67
2022-09-04T22:02:28.944Z,2.80
2022-09-04T22:02:35.101Z,3.03
2022-09-04T22:04:16.290Z,2.90
2022-09-04T22:09:09.830Z,3.00
2022-09-04T22:13:32.370Z,2.93
2022-09-04T22:13:38.857Z,3.10
2022-09-04T22:16:00.782Z,2.83
2022-09-04T22:18:48.937Z,2.90
2022-09-04T22:21:28.280Z,2.40
2022-09-04T22:24:17.003Z,2.90
2022-09-04T22:27:05.477Z,2.97
2022-09-04T22:29:49.230Z,2.63
2022-09-04T22:32:34.687Z,2.40
2022-09-04T22:35:42.812Z,2.40
2022-09-04T22:38:32.319Z,2.60
2022-09-04T22:41:33.502Z,2.60
2022-09-04T22:44:12.794Z,2.70
2022-09-04T22:47:25.442Z,2.60
2022-09-04T22:50:29.040Z,2.70
2022-09-04T22:53:37.223Z,2.93
2022-09-04T22:56:25.080Z,2.47
2022-09-04T22:59:26.841Z,2.60
2022-09-04T23:02:17.295Z,2.50
2022-09-04T23:05:05.600Z,2.70
2022-09-04T23:13:48.454Z,2.87
2022-09-04T23:13:59.987Z,2.50
2022-09-04T23:14:08.865Z,2.53
2022-09-04T23:17:02.635Z,2.50
2022-09-04T23:26:31.013Z,2.30
2022-09-04T23:26:36.049Z,2.20
2022-09-04T23:26:45.852Z,2.57
2022-09-04T23:29:12.170Z,2.30
2022-09-04T23:32:07.335Z,2.23
2022-09-04T23:35:13.787Z,2.10
2022-09-04T23:38:02.110Z,2.07
2022-09-04T23:40:36.621Z,2.60
2022-09-04T23:43:36.859Z,2.50
2022-09-04T23:46:31.308Z,2.60
2022-09-04T23:49:36.459Z,2.40
2022-09-04T23:52:12.392Z,2.40
2022-09-04T23:54:54.490Z,2.13
2022-09-04T23:57:29.281Z,2.23
